sensor_id;sensor_type;location;lat;lon;timestamp;pressure;altitude;pressure_sealevel;temperature;humidity
51287;BME280;37364;46.974;18.916;2023-03-04T00:02:35;150390.34;;;0.14;100.00
51287;BME280;37364;46.974;18.916;2023-03-04T00:05:06;150396.75;;;0.17;100.00
51287;BME280;37364;46.974;18.916;2023-03-04T00:07:39;150400.63;;;0.18;100.00
51287;BME280;37364;46.974;18.916;2023-03-04T00:10:13;150404.47;;;0.20;100.00
51287;BME280;37364;46.974;18.916;2023-03-04T00:12:43;150390.34;;;0.14;100.00
51287;BME280;37364;46.974;18.916;2023-03-04T00:15:14;150376.22;;;0.09;100.00
51287;BME280;37364;46.974;18.916;2023-03-04T00:17:44;150365.94;;;0.05;100.00
51287;BME280;37364;46.974;18.916;2023-03-04T00:20:15;150368.50;;;0.06;100.00
51287;BME280;37364;46.974;18.916;2023-03-04T00:22:45;150353.09;;;-0.01;100.00
51287;BME280;37364;46.974;18.916;2023-03-04T00:25:20;150344.09;;;-0.04;100.00
51287;BME280;37364;46.974;18.916;2023-03-04T00:27:50;150340.28;;;-0.06;100.00
51287;BME280;37364;46.974;18.916;2023-03-04T00:30:20;150327.41;;;-0.11;100.00
51287;BME280;37364;46.974;18.916;2023-03-04T00:32:50;150326.13;;;-0.11;100.00
51287;BME280;37364;46.974;18.916;2023-03-04T00:35:20;150303.00;;;-0.21;100.00
51287;BME280;37364;46.974;18.916;2023-03-04T00:37:54;150290.16;;;-0.26;100.00
51287;BME280;37364;46.974;18.916;2023-03-04T00:40:27;150314.56;;;-0.16;100.00
51287;BME280;37364;46.974;18.916;2023-03-04T00:42:59;150340.28;;;-0.06;100.00
51287;BME280;37364;46.974;18.916;2023-03-04T00:45:30;150350.53;;;-0.02;100.00
51287;BME280;37364;46.974;18.916;2023-03-04T00:48:02;150342.81;;;-0.05;100.00
51287;BME280;37364;46.974;18.916;2023-03-04T00:50:32;150340.28;;;-0.06;100.00
51287;BME280;37364;46.974;18.916;2023-03-04T00:53:02;150340.28;;;-0.06;100.00
51287;BME280;37364;46.974;18.916;2023-03-04T00:55:37;150313.28;;;-0.16;100.00
51287;BME280;37364;46.974;18.916;2023-03-04T00:58:07;150304.28;;;-0.20;100.00
51287;BME280;37364;46.974;18.916;2023-03-04T01:00:37;150327.41;;;-0.11;100.00
51287;BME280;37364;46.974;18.916;2023-03-04T01:03:08;150332.53;;;-0.09;100.00
51287;BME280;37364;46.974;18.916;2023-03-04T01:05:38;150358.22;;;0.02;100.00
51287;BME280;37364;46.974;18.916;2023-03-04T01:08:09;150368.50;;;0.06;100.00
51287;BME280;37364;46.974;18.916;2023-03-04T01:10:41;150392.88;;;0.15;100.00
51287;BME280;37364;46.974;18.916;2023-03-04T01:13:11;150377.47;;;0.09;100.00
51287;BME280;37364;46.974;18.916;2023-03-04T01:15:45;150362.09;;;0.03;100.00
51287;BME280;37364;46.974;18.916;2023-03-04T01:18:17;150376.22;;;0.09;100.00
51287;BME280;37364;46.974;18.916;2023-03-04T01:20:48;150378.75;;;0.10;100.00
51287;BME280;37364;46.974;18.916;2023-03-04T01:23:20;150398.03;;;0.17;100.00
51287;BME280;37364;46.974;18.916;2023-03-04T01:25:53;150407.03;;;0.21;100.00
51287;BME280;37364;46.974;18.916;2023-03-04T01:28:24;150413.47;;;0.24;100.00
51287;BME280;37364;46.974;18.916;2023-03-04T01:30:54;150422.44;;;0.27;100.00
51287;BME280;37364;46.974;18.916;2023-03-04T01:33:25;150418.63;;;0.26;100.00
51287;BME280;37364;46.974;18.916;2023-03-04T01:35:55;150440.44;;;0.34;100.00
51287;BME280;37364;46.974;18.916;2023-03-04T01:38:25;150448.16;;;0.37;100.00
51287;BME280;37364;46.974;18.916;2023-03-04T01:40:58;150416.03;;;0.25;100.00
51287;BME280;37364;46.974;18.916;2023-03-04T01:43:30;150398.03;;;0.17;100.00
51287;BME280;37364;46.974;18.916;2023-03-04T01:46:01;150407.03;;;0.21;100.00
51287;BME280;37364;46.974;18.916;2023-03-04T01:48:34;150373.63;;;0.08;100.00
51287;BME280;37364;46.974;18.916;2023-03-04T01:51:09;150371.09;;;0.07;100.00
51287;BME280;37364;46.974;18.916;2023-03-04T01:53:43;150369.81;;;0.06;100.00
51287;BME280;37364;46.974;18.916;2023-03-04T01:56:20;150359.53;;;0.02;100.00
51287;BME280;37364;46.974;18.916;2023-03-04T01:59:09;150400.63;;;0.18;100.00
51287;BME280;37364;46.974;18.916;2023-03-04T02:01:40;150395.50;;;0.16;100.00
51287;BME280;37364;46.974;18.916;2023-03-04T02:04:12;150369.81;;;0.06;100.00
51287;BME280;37364;46.974;18.916;2023-03-04T02:06:45;150337.69;;;-0.07;100.00
51287;BME280;37364;46.974;18.916;2023-03-04T02:09:16;150321.00;;;-0.13;100.00
51287;BME280;37364;46.974;18.916;2023-03-04T02:11:50;150317.13;;;-0.15;100.00
51287;BME280;37364;46.974;18.916;2023-03-04T02:14:21;150304.28;;;-0.20;100.00
51287;BME280;37364;46.974;18.916;2023-03-04T02:16:51;150303.00;;;-0.21;100.00
51287;BME280;37364;46.974;18.916;2023-03-04T02:19:29;150288.88;;;-0.26;100.00
51287;BME280;37364;46.974;18.916;2023-03-04T02:22:03;150279.88;;;-0.30;100.00
51287;BME280;37364;46.974;18.916;2023-03-04T02:24:37;150286.34;;;-0.27;100.00
51287;BME280;37364;46.974;18.916;2023-03-04T02:27:11;150287.59;;;-0.27;100.00
51287;BME280;37364;46.974;18.916;2023-03-04T02:29:41;150270.88;;;-0.33;100.00
51287;BME280;37364;46.974;18.916;2023-03-04T02:32:12;150254.22;;;-0.40;100.00
51287;BME280;37364;46.974;18.916;2023-03-04T02:34:46;150251.66;;;-0.41;100.00
51287;BME280;37364;46.974;18.916;2023-03-04T02:37:19;150250.34;;;-0.42;100.00
51287;BME280;37364;46.974;18.916;2023-03-04T02:39:53;150234.94;;;-0.48;100.00
51287;BME280;37364;46.974;18.916;2023-03-04T02:42:25;150213.16;;;-0.56;100.00
51287;BME280;37364;46.974;18.916;2023-03-04T02:45:00;150222.13;;;-0.53;100.00
51287;BME280;37364;46.974;18.916;2023-03-04T02:47:30;150200.28;;;-0.62;100.00
51287;BME280;37364;46.974;18.916;2023-03-04T02:50:00;150204.16;;;-0.60;100.00
51287;BME280;37364;46.974;18.916;2023-03-04T02:52:30;150228.56;;;-0.50;100.00
51287;BME280;37364;46.974;18.916;2023-03-04T02:55:00;150211.81;;;-0.57;100.00
51287;BME280;37364;46.974;18.916;2023-03-04T02:57:33;150261.94;;;-0.37;100.00
51287;BME280;37364;46.974;18.916;2023-03-04T03:00:05;150225.97;;;-0.51;100.00
51287;BME280;37364;46.974;18.916;2023-03-04T03:02:35;150247.81;;;-0.43;100.00
51287;BME280;37364;46.974;18.916;2023-03-04T03:05:06;150256.81;;;-0.39;100.00
51287;BME280;37364;46.974;18.916;2023-03-04T03:07:37;150247.81;;;-0.43;100.00
51287;BME280;37364;46.974;18.916;2023-03-04T03:10:09;150231.09;;;-0.49;100.00
51287;BME280;37364;46.974;18.916;2023-03-04T03:12:42;150233.69;;;-0.48;100.00
51287;BME280;37364;46.974;18.916;2023-03-04T03:15:13;150241.34;;;-0.45;100.00
51287;BME280;37364;46.974;18.916;2023-03-04T03:17:43;150269.63;;;-0.34;100.00
51287;BME280;37364;46.974;18.916;2023-03-04T03:20:14;150267.06;;;-0.35;100.00
51287;BME280;37364;46.974;18.916;2023-03-04T03:22:46;150254.22;;;-0.40;100.00
51287;BME280;37364;46.974;18.916;2023-03-04T03:25:17;150265.75;;;-0.35;100.00
51287;BME280;37364;46.974;18.916;2023-03-04T03:27:50;150241.34;;;-0.45;100.00
51287;BME280;37364;46.974;18.916;2023-03-04T03:30:22;150229.81;;;-0.50;100.00
51287;BME280;37364;46.974;18.916;2023-03-04T03:32:52;150227.28;;;-0.51;100.00
51287;BME280;37364;46.974;18.916;2023-03-04T03:35:23;150224.69;;;-0.52;100.00
51287;BME280;37364;46.974;18.916;2023-03-04T03:37:53;150260.63;;;-0.37;100.00
51287;BME280;37364;46.974;18.916;2023-03-04T03:40:24;150259.34;;;-0.38;100.00
51287;BME280;37364;46.974;18.916;2023-03-04T03:42:57;150245.22;;;-0.44;100.00
51287;BME280;37364;46.974;18.916;2023-03-04T03:45:27;150238.81;;;-0.46;100.00
51287;BME280;37364;46.974;18.916;2023-03-04T03:47:58;150243.94;;;-0.44;100.00
51287;BME280;37364;46.974;18.916;2023-03-04T03:50:28;150256.81;;;-0.39;100.00
51287;BME280;37364;46.974;18.916;2023-03-04T03:52:59;150245.22;;;-0.44;100.00
51287;BME280;37364;46.974;18.916;2023-03-04T03:55:29;150252.94;;;-0.41;100.00
51287;BME280;37364;46.974;18.916;2023-03-04T03:58:02;150213.16;;;-0.56;100.00
51287;BME280;37364;46.974;18.916;2023-03-04T04:00:32;150215.69;;;-0.55;100.00
51287;BME280;37364;46.974;18.916;2023-03-04T04:03:03;150234.94;;;-0.48;100.00
51287;BME280;37364;46.974;18.916;2023-03-04T04:05:33;150216.97;;;-0.55;100.00
51287;BME280;37364;46.974;18.916;2023-03-04T04:08:04;150223.41;;;-0.52;100.00
51287;BME280;37364;46.974;18.916;2023-03-04T04:10:34;150193.88;;;-0.64;100.00
51287;BME280;37364;46.974;18.916;2023-03-04T04:13:07;150166.91;;;-0.75;100.00
51287;BME280;37364;46.974;18.916;2023-03-04T04:15:38;150139.97;;;-0.86;100.00
51287;BME280;37364;46.974;18.916;2023-03-04T04:18:08;150124.59;;;-0.92;100.00
51287;BME280;37364;46.974;18.916;2023-03-04T04:20:39;150106.59;;;-0.99;100.00
51287;BME280;37364;46.974;18.916;2023-03-04T04:23:09;150089.94;;;-1.06;100.00
51287;BME280;37364;46.974;18.916;2023-03-04T04:25:40;150075.81;;;-1.11;100.00
51287;BME280;37364;46.974;18.916;2023-03-04T04:28:13;150087.34;;;-1.07;100.00
51287;BME280;37364;46.974;18.916;2023-03-04T04:30:43;150073.22;;;-1.12;100.00
51287;BME280;37364;46.974;18.916;2023-03-04T04:33:14;150047.59;;;-1.23;100.00
51287;BME280;37364;46.974;18.916;2023-03-04T04:35:45;150029.59;;;-1.30;100.00
51287;BME280;37364;46.974;18.916;2023-03-04T04:38:15;150010.34;;;-1.37;100.00
51287;BME280;37364;46.974;18.916;2023-03-04T04:40:45;149996.25;;;-1.43;100.00
51287;BME280;37364;46.974;18.916;2023-03-04T04:43:18;149991.09;;;-1.45;100.00
51287;BME280;37364;46.974;18.916;2023-03-04T04:45:48;149973.19;;;-1.52;100.00
51287;BME280;37364;46.974;18.916;2023-03-04T04:48:18;149952.66;;;-1.61;100.00
51287;BME280;37364;46.974;18.916;2023-03-04T04:50:53;149942.38;;;-1.65;100.00
51287;BME280;37364;46.974;18.916;2023-03-04T04:53:23;149934.69;;;-1.68;100.00
51287;BME280;37364;46.974;18.916;2023-03-04T04:55:54;149939.81;;;-1.66;100.00
51287;BME280;37364;46.974;18.916;2023-03-04T04:58:27;149952.66;;;-1.61;100.00
51287;BME280;37364;46.974;18.916;2023-03-04T05:00:57;149962.94;;;-1.56;100.00
51287;BME280;37364;46.974;18.916;2023-03-04T05:03:27;149957.81;;;-1.58;100.00
51287;BME280;37364;46.974;18.916;2023-03-04T05:05:57;149928.31;;;-1.70;100.00
51287;BME280;37364;46.974;18.916;2023-03-04T05:08:28;149924.44;;;-1.72;100.00
51287;BME280;37364;46.974;18.916;2023-03-04T05:10:58;149934.69;;;-1.68;100.00
51287;BME280;37364;46.974;18.916;2023-03-04T05:13:31;149938.56;;;-1.66;100.00
51287;BME280;37364;46.974;18.916;2023-03-04T05:16:02;149937.25;;;-1.67;100.00
51287;BME280;37364;46.974;18.916;2023-03-04T05:18:32;149933.44;;;-1.68;100.00
51287;BME280;37364;46.974;18.916;2023-03-04T05:21:06;149955.22;;;-1.60;100.00
51287;BME280;37364;46.974;18.916;2023-03-04T05:23:39;149957.81;;;-1.58;100.00
51287;BME280;37364;46.974;18.916;2023-03-04T05:26:12;149988.56;;;-1.46;100.00
51287;BME280;37364;46.974;18.916;2023-03-04T05:28:45;149983.44;;;-1.48;100.00
51287;BME280;37364;46.974;18.916;2023-03-04T05:31:16;149989.84;;;-1.46;100.00
51287;BME280;37364;46.974;18.916;2023-03-04T05:33:47;149988.56;;;-1.46;100.00
51287;BME280;37364;46.974;18.916;2023-03-04T05:36:17;149985.97;;;-1.47;100.00
51287;BME280;37364;46.974;18.916;2023-03-04T05:38:47;149985.97;;;-1.47;100.00
51287;BME280;37364;46.974;18.916;2023-03-04T05:41:17;149993.69;;;-1.44;100.00
51287;BME280;37364;46.974;18.916;2023-03-04T05:43:51;149997.56;;;-1.43;100.00
51287;BME280;37364;46.974;18.916;2023-03-04T05:46:22;150003.94;;;-1.40;100.00
51287;BME280;37364;46.974;18.916;2023-03-04T05:48:53;150014.22;;;-1.36;100.00
51287;BME280;37364;46.974;18.916;2023-03-04T05:51:23;150011.69;;;-1.37;100.00
51287;BME280;37364;46.974;18.916;2023-03-04T05:53:53;150018.06;;;-1.34;100.00
51287;BME280;37364;46.974;18.916;2023-03-04T05:56:24;150028.34;;;-1.30;100.00
51287;BME280;37364;46.974;18.916;2023-03-04T05:58:59;150045.00;;;-1.24;100.00
51287;BME280;37364;46.974;18.916;2023-03-04T06:01:29;150073.22;;;-1.12;100.00
51287;BME280;37364;46.974;18.916;2023-03-04T06:04:00;150096.34;;;-1.03;100.00
51287;BME280;37364;46.974;18.916;2023-03-04T06:06:30;150114.31;;;-0.96;100.00
51287;BME280;37364;46.974;18.916;2023-03-04T06:09:00;150119.47;;;-0.94;100.00
51287;BME280;37364;46.974;18.916;2023-03-04T06:11:30;150186.16;;;-0.67;100.00
51287;BME280;37364;46.974;18.916;2023-03-04T06:14:05;150175.91;;;-0.71;100.00
51287;BME280;37364;46.974;18.916;2023-03-04T06:16:35;150183.63;;;-0.68;100.00
51287;BME280;37364;46.974;18.916;2023-03-04T06:19:05;150201.56;;;-0.61;100.00
51287;BME280;37364;46.974;18.916;2023-03-04T06:21:35;150201.56;;;-0.61;100.00
51287;BME280;37364;46.974;18.916;2023-03-04T06:24:08;150234.94;;;-0.48;100.00
51287;BME280;37364;46.974;18.916;2023-03-04T06:26:38;150265.75;;;-0.35;100.00
51287;BME280;37364;46.974;18.916;2023-03-04T06:29:11;150272.22;;;-0.33;100.00
51287;BME280;37364;46.974;18.916;2023-03-04T06:31:41;150281.19;;;-0.29;100.00
51287;BME280;37364;46.974;18.916;2023-03-04T06:34:11;150286.34;;;-0.27;100.00
51287;BME280;37364;46.974;18.916;2023-03-04T06:36:42;150319.69;;;-0.14;100.00
51287;BME280;37364;46.974;18.916;2023-03-04T06:39:12;150335.13;;;-0.08;100.00
51287;BME280;37364;46.974;18.916;2023-03-04T06:41:43;150342.81;;;-0.05;100.00
51287;BME280;37364;46.974;18.916;2023-03-04T06:44:16;150377.47;;;0.09;100.00
51287;BME280;37364;46.974;18.916;2023-03-04T06:46:47;150396.75;;;0.17;100.00
51287;BME280;37364;46.974;18.916;2023-03-04T06:49:18;150414.75;;;0.24;100.00
51287;BME280;37364;46.974;18.916;2023-03-04T06:51:48;150444.31;;;0.36;100.00
51287;BME280;37364;46.974;18.916;2023-03-04T06:54:19;150461.00;;;0.43;100.00
51287;BME280;37364;46.974;18.916;2023-03-04T06:56:49;150511.09;;;0.63;100.00
51287;BME280;37364;46.974;18.916;2023-03-04T06:59:22;150532.97;;;0.71;100.00
51287;BME280;37364;46.974;18.916;2023-03-04T07:01:55;150571.53;;;0.87;100.00
51287;BME280;37364;46.974;18.916;2023-03-04T07:04:25;150583.06;;;0.91;100.00
51287;BME280;37364;46.974;18.916;2023-03-04T07:06:55;150610.09;;;1.02;100.00
51287;BME280;37364;46.974;18.916;2023-03-04T07:09:26;150637.06;;;1.13;100.00
51287;BME280;37364;46.974;18.916;2023-03-04T07:11:57;150669.22;;;1.26;100.00
51287;BME280;37364;46.974;18.916;2023-03-04T07:14:30;150730.91;;;1.50;100.00
51287;BME280;37364;46.974;18.916;2023-03-04T07:17:00;150759.22;;;1.62;100.00
51287;BME280;37364;46.974;18.916;2023-03-04T07:19:30;150828.66;;;1.89;100.00
51287;BME280;37364;46.974;18.916;2023-03-04T07:22:00;150887.81;;;2.13;100.00
51287;BME280;37364;46.974;18.916;2023-03-04T07:24:31;150917.41;;;2.25;100.00
51287;BME280;37364;46.974;18.916;2023-03-04T07:27:01;150980.47;;;2.50;100.00
51287;BME280;37364;46.974;18.916;2023-03-04T07:29:34;151001.06;;;2.58;100.00
51287;BME280;37364;46.974;18.916;2023-03-04T07:32:06;151055.13;;;2.80;100.00
51287;BME280;37364;46.974;18.916;2023-03-04T07:34:37;151088.59;;;2.93;100.00
51287;BME280;37364;46.974;18.916;2023-03-04T07:37:08;151107.91;;;3.01;100.00
51287;BME280;37364;46.974;18.916;2023-03-04T07:39:38;151119.47;;;3.05;100.00
51287;BME280;37364;46.974;18.916;2023-03-04T07:42:08;151109.19;;;3.01;100.00
51287;BME280;37364;46.974;18.916;2023-03-04T07:44:43;151143.94;;;3.15;100.00
51287;BME280;37364;46.974;18.916;2023-03-04T07:47:13;151145.22;;;3.15;100.00
51287;BME280;37364;46.974;18.916;2023-03-04T07:49:43;151194.16;;;3.35;100.00
51287;BME280;37364;46.974;18.916;2023-03-04T07:52:14;151196.75;;;3.36;100.00
51287;BME280;37364;46.974;18.916;2023-03-04T07:54:44;151205.78;;;3.40;100.00
51287;BME280;37364;46.974;18.916;2023-03-04T07:57:14;151276.59;;;3.68;100.00
51287;BME280;37364;46.974;18.916;2023-03-04T07:59:47;151283.03;;;3.70;100.00
51287;BME280;37364;46.974;18.916;2023-03-04T08:02:17;151316.53;;;3.84;100.00
51287;BME280;37364;46.974;18.916;2023-03-04T08:04:47;151317.84;;;3.84;100.00
51287;BME280;37364;46.974;18.916;2023-03-04T08:07:17;151317.84;;;3.84;100.00
51287;BME280;37364;46.974;18.916;2023-03-04T08:09:47;151371.94;;;4.06;100.00
51287;BME280;37364;46.974;18.916;2023-03-04T08:12:17;151401.59;;;4.18;100.00
51287;BME280;37364;46.974;18.916;2023-03-04T08:14:51;151437.66;;;4.32;100.00
51287;BME280;37364;46.974;18.916;2023-03-04T08:17:21;151450.50;;;4.37;100.00
51287;BME280;37364;46.974;18.916;2023-03-04T08:19:51;151511.13;;;4.61;100.00
51287;BME280;37364;46.974;18.916;2023-03-04T08:22:21;151564.00;;;4.82;100.00
51287;BME280;37364;46.974;18.916;2023-03-04T08:24:51;151593.66;;;4.94;100.00
51287;BME280;37364;46.974;18.916;2023-03-04T08:27:22;151594.91;;;4.94;100.00
51287;BME280;37364;46.974;18.916;2023-03-04T08:29:54;151656.78;;;5.19;100.00
51287;BME280;37364;46.974;18.916;2023-03-04T08:32:24;151672.31;;;5.25;100.00
51287;BME280;37364;46.974;18.916;2023-03-04T08:34:55;151667.09;;;5.23;100.00
51287;BME280;37364;46.974;18.916;2023-03-04T08:37:28;151704.53;;;5.38;100.00
51287;BME280;37364;46.974;18.916;2023-03-04T08:39:58;151761.31;;;5.61;100.00
51287;BME280;37364;46.974;18.916;2023-03-04T08:42:33;151727.75;;;5.47;100.00
51287;BME280;37364;46.974;18.916;2023-03-04T08:45:07;151827.09;;;5.87;100.00
51287;BME280;37364;46.974;18.916;2023-03-04T08:47:38;151846.44;;;5.94;100.00
51287;BME280;37364;46.974;18.916;2023-03-04T08:50:09;151864.53;;;6.02;100.00
51287;BME280;37364;46.974;18.916;2023-03-04T08:52:40;151872.28;;;6.05;100.00
51287;BME280;37364;46.974;18.916;2023-03-04T08:55:10;151882.59;;;6.09;100.00
51287;BME280;37364;46.974;18.916;2023-03-04T08:57:40;151926.50;;;6.26;100.00
51287;BME280;37364;46.974;18.916;2023-03-04T09:00:14;151904.56;;;6.18;100.00
51287;BME280;37364;46.974;18.916;2023-03-04T09:02:45;151887.75;;;6.11;100.00
51287;BME280;37364;46.974;18.916;2023-03-04T09:05:15;151898.09;;;6.15;100.00
51287;BME280;37364;46.974;18.916;2023-03-04T09:07:46;151983.31;;;6.49;100.00
51287;BME280;37364;46.974;18.916;2023-03-04T09:10:16;152005.22;;;6.58;100.00
51287;BME280;37364;46.974;18.916;2023-03-04T09:12:47;152104.63;;;6.97;100.00
51287;BME280;37364;46.974;18.916;2023-03-04T09:15:22;152029.75;;;6.67;100.00
51287;BME280;37364;46.974;18.916;2023-03-04T09:17:53;152116.28;;;7.02;100.00
51287;BME280;37364;46.974;18.916;2023-03-04T09:20:23;152098.19;;;6.95;100.00
51287;BME280;37364;46.974;18.916;2023-03-04T09:22:53;152022.00;;;6.64;100.00
51287;BME280;37364;46.974;18.916;2023-03-04T09:25:23;152089.16;;;6.91;100.00
51287;BME280;37364;46.974;18.916;2023-03-04T09:27:54;152158.88;;;7.19;100.00
51287;BME280;37364;46.974;18.916;2023-03-04T09:30:27;152178.25;;;7.26;100.00
51287;BME280;37364;46.974;18.916;2023-03-04T09:32:57;152192.47;;;7.32;100.00
51287;BME280;37364;46.974;18.916;2023-03-04T09:35:27;152215.75;;;7.41;100.00
51287;BME280;37364;46.974;18.916;2023-03-04T09:37:58;152277.72;;;7.66;100.00
51287;BME280;37364;46.974;18.916;2023-03-04T09:40:32;152308.75;;;7.78;100.00
51287;BME280;37364;46.974;18.916;2023-03-04T09:43:11;152310.03;;;7.79;100.00
51287;BME280;37364;46.974;18.916;2023-03-04T09:45:53;152352.66;;;7.96;100.00
51287;BME280;37364;46.974;18.916;2023-03-04T09:48:27;152295.81;;;7.73;100.00
51287;BME280;37364;46.974;18.916;2023-03-04T09:51:05;152341.03;;;7.91;100.00
51287;BME280;37364;46.974;18.916;2023-03-04T09:53:45;152351.38;;;7.95;100.00
51287;BME280;37364;46.974;18.916;2023-03-04T09:56:16;152317.75;;;7.82;100.00
51287;BME280;37364;46.974;18.916;2023-03-04T09:58:55;152400.47;;;8.15;100.00
51287;BME280;37364;46.974;18.916;2023-03-04T10:01:35;152394.03;;;8.12;100.00
51287;BME280;37364;46.974;18.916;2023-03-04T10:04:13;152444.44;;;8.32;100.00
51287;BME280;37364;46.974;18.916;2023-03-04T10:06:46;152390.16;;;8.10;97.33
51287;BME280;37364;46.974;18.916;2023-03-04T10:09:23;152445.72;;;8.32;100.00
51287;BME280;37364;46.974;18.916;2023-03-04T10:12:00;152520.75;;;8.62;100.00
51287;BME280;37364;46.974;18.916;2023-03-04T10:14:37;152525.91;;;8.64;96.78
51287;BME280;37364;46.974;18.916;2023-03-04T10:17:18;152496.16;;;8.52;97.71
51287;BME280;37364;46.974;18.916;2023-03-04T10:19:54;152456.06;;;8.37;97.31
51287;BME280;37364;46.974;18.916;2023-03-04T10:22:32;152554.38;;;8.76;99.38
51287;BME280;37364;46.974;18.916;2023-03-04T10:25:20;152501.38;;;8.55;94.16
51287;BME280;37364;46.974;18.916;2023-03-04T10:27:54;152568.59;;;8.81;96.40
51287;BME280;37364;46.974;18.916;2023-03-04T10:30:37;152522.06;;;8.63;92.76
51287;BME280;37364;46.974;18.916;2023-03-04T10:33:15;152595.78;;;8.92;96.91
51287;BME280;37364;46.974;18.916;2023-03-04T10:35:48;152567.31;;;8.81;92.47
51287;BME280;37364;46.974;18.916;2023-03-04T10:38:21;152588.00;;;8.89;94.48
51287;BME280;37364;46.974;18.916;2023-03-04T10:40:52;152731.56;;;9.46;98.72
51287;BME280;37364;46.974;18.916;2023-03-04T10:43:22;152668.16;;;9.21;94.12
51287;BME280;37364;46.974;18.916;2023-03-04T10:45:54;152739.34;;;9.49;90.54
51287;BME280;37364;46.974;18.916;2023-03-04T10:48:31;152766.50;;;9.60;88.10
51287;BME280;37364;46.974;18.916;2023-03-04T10:51:12;152675.94;;;9.24;91.38
51287;BME280;37364;46.974;18.916;2023-03-04T10:53:42;152752.25;;;9.54;88.41
51287;BME280;37364;46.974;18.916;2023-03-04T10:56:35;152797.53;;;9.72;91.32
51287;BME280;37364;46.974;18.916;2023-03-04T10:59:28;152859.66;;;9.97;81.15
51287;BME280;37364;46.974;18.916;2023-03-04T11:02:00;152906.25;;;10.15;83.16
51287;BME280;37364;46.974;18.916;2023-03-04T11:04:34;152932.16;;;10.25;79.21
51287;BME280;37364;46.974;18.916;2023-03-04T11:07:07;152806.59;;;9.76;80.90
51287;BME280;37364;46.974;18.916;2023-03-04T11:09:38;152903.69;;;10.14;83.75
51287;BME280;37364;46.974;18.916;2023-03-04T11:12:11;152884.25;;;10.06;82.53
51287;BME280;37364;46.974;18.916;2023-03-04T11:14:45;152911.41;;;10.17;80.96
51287;BME280;37364;46.974;18.916;2023-03-04T11:17:19;152950.31;;;10.33;77.69
51287;BME280;37364;46.974;18.916;2023-03-04T11:19:56;152917.91;;;10.20;77.32
51287;BME280;37364;46.974;18.916;2023-03-04T11:22:29;152987.88;;;10.47;80.35
51287;BME280;37364;46.974;18.916;2023-03-04T11:25:04;152888.16;;;10.08;73.17
51287;BME280;37364;46.974;18.916;2023-03-04T11:27:40;152958.09;;;10.36;75.75
51287;BME280;37364;46.974;18.916;2023-03-04T11:30:43;152968.44;;;10.40;72.98
51287;BME280;37364;46.974;18.916;2023-03-04T11:33:25;153008.56;;;10.56;72.95
51287;BME280;37364;46.974;18.916;2023-03-04T11:36:08;152898.50;;;10.12;71.84
51287;BME280;37364;46.974;18.916;2023-03-04T11:38:47;152996.94;;;10.51;73.01
51287;BME280;37364;46.974;18.916;2023-03-04T11:41:23;153038.34;;;10.67;71.02
51287;BME280;37364;46.974;18.916;2023-03-04T11:43:54;153034.44;;;10.66;70.23
51287;BME280;37364;46.974;18.916;2023-03-04T11:46:47;152958.09;;;10.36;70.20
51287;BME280;37364;46.974;18.916;2023-03-04T11:49:37;153007.28;;;10.55;69.26
51287;BME280;37364;46.974;18.916;2023-03-04T11:52:30;153057.78;;;10.75;65.93
51287;BME280;37364;46.974;18.916;2023-03-04T11:55:15;152971.06;;;10.41;64.95
51287;BME280;37364;46.974;18.916;2023-03-04T11:57:55;153026.72;;;10.63;67.06
51287;BME280;37364;46.974;18.916;2023-03-04T12:00:34;153074.59;;;10.82;64.71
51287;BME280;37364;46.974;18.916;2023-03-04T12:03:34;152995.66;;;10.51;63.71
51287;BME280;37364;46.974;18.916;2023-03-04T12:06:16;152964.53;;;10.38;61.39
51287;BME280;37364;46.974;18.916;2023-03-04T12:09:02;152965.81;;;10.39;59.21
51287;BME280;37364;46.974;18.916;2023-03-04T12:11:39;153002.09;;;10.53;56.40
51287;BME280;37364;46.974;18.916;2023-03-04T12:14:22;153085.00;;;10.86;57.09
51287;BME280;37364;46.974;18.916;2023-03-04T12:17:19;153075.91;;;10.82;56.70
51287;BME280;37364;46.974;18.916;2023-03-04T12:20:02;153062.94;;;10.77;55.75
51287;BME280;37364;46.974;18.916;2023-03-04T12:22:44;153024.09;;;10.62;56.16
51287;BME280;37364;46.974;18.916;2023-03-04T12:25:43;153059.06;;;10.76;58.29
51287;BME280;37364;46.974;18.916;2023-03-04T12:28:46;153121.25;;;11.00;56.77
51287;BME280;37364;46.974;18.916;2023-03-04T12:31:38;153145.84;;;11.10;56.79
51287;BME280;37364;46.974;18.916;2023-03-04T12:34:37;153105.69;;;10.94;57.19
51287;BME280;37364;46.974;18.916;2023-03-04T12:37:37;153079.81;;;10.84;54.99
51287;BME280;37364;46.974;18.916;2023-03-04T12:40:37;153192.47;;;11.28;55.54
51287;BME280;37364;46.974;18.916;2023-03-04T12:46:26;153105.69;;;10.94;55.14
51287;BME280;37364;46.974;18.916;2023-03-04T12:49:13;153131.59;;;11.04;53.96
51287;BME280;37364;46.974;18.916;2023-03-04T12:51:51;153082.38;;;10.85;53.02
51287;BME280;37364;46.974;18.916;2023-03-04T12:54:29;153162.66;;;11.17;51.65
51287;BME280;37364;46.974;18.916;2023-03-04T12:57:03;153152.31;;;11.13;51.71
51287;BME280;37364;46.974;18.916;2023-03-04T12:59:43;153130.31;;;11.04;51.48
51287;BME280;37364;46.974;18.916;2023-03-04T13:02:29;153131.59;;;11.04;53.16
51287;BME280;37364;46.974;18.916;2023-03-04T13:05:14;153105.69;;;10.94;51.12
51287;BME280;37364;46.974;18.916;2023-03-04T13:07:55;153110.88;;;10.96;52.01
51287;BME280;37364;46.974;18.916;2023-03-04T13:10:26;153165.28;;;11.18;53.23
51287;BME280;37364;46.974;18.916;2023-03-04T13:12:58;153174.34;;;11.21;52.70